createdAt,value
2022-11-15T06:05:39.986Z,63.25
2022-11-15T06:08:06.219Z,58.97
2022-11-15T06:10:32.430Z,61.22
2022-11-15T06:12:58.872Z,55.17
2022-11-15T06:15:25.163Z,54.67
2022-11-15T06:17:51.426Z,47.10
2022-11-15T06:20:17.665Z,48.78
2022-11-15T06:22:44.238Z,53.13
2022-11-15T06:25:10.738Z,49.85
2022-11-15T06:27:36.964Z,45.25
2022-11-15T06:30:03.272Z,39.80
2022-11-15T06:32:29.512Z,43.40
2022-11-15T06:34:55.753Z,39.28
2022-11-15T06:37:21.983Z,40.67
2022-11-15T06:39:48.201Z,38.85
2022-11-15T06:42:14.417Z,41.08
2022-11-15T06:44:40.676Z,38.45
2022-11-15T06:47:07.129Z,40.65
2022-11-15T06:49:33.381Z,38.60
2022-11-15T06:51:59.629Z,38.13
2022-11-15T06:54:26.020Z,36.88
2022-11-15T06:56:52.227Z,38.85
2022-11-15T06:59:18.445Z,41.15
2022-11-15T07:01:44.767Z,32.80
2022-11-15T07:04:11.010Z,37.45
2022-11-15T07:06:37.243Z,37.13
2022-11-15T07:09:03.488Z,36.50
2022-11-15T07:11:29.744Z,41.13
2022-11-15T07:13:56.081Z,38.05
2022-11-15T07:16:22.395Z,40.65
2022-11-15T07:18:48.662Z,38.40
2022-11-15T07:21:16.732Z,41.17
2022-11-15T07:26:09.306Z,39.47
2022-11-15T07:28:35.883Z,38.75
2022-11-15T07:31:02.417Z,39.92
2022-11-15T07:33:28.984Z,40.80
2022-11-15T07:35:55.530Z,41.78
2022-11-15T07:38:21.762Z,37.63
2022-11-15T07:40:48.085Z,43.00
2022-11-15T07:43:14.405Z,37.75
2022-11-15T07:45:40.696Z,39.92
2022-11-15T07:48:07.020Z,39.90
2022-11-15T07:50:33.311Z,42.40
2022-11-15T07:52:59.632Z,39.50
2022-11-15T07:55:25.957Z,42.03
2022-11-15T07:57:52.243Z,40.63
2022-11-15T08:00:18.812Z,39.75
2022-11-15T08:02:45.228Z,39.90
2022-11-15T08:05:11.591Z,40.00
2022-11-15T08:07:39.048Z,37.90
2022-11-15T08:10:06.838Z,36.42
2022-11-15T08:12:33.181Z,36.63
2022-11-15T08:14:59.519Z,36.13
2022-11-15T08:17:25.853Z,36.50
2022-11-15T08:19:52.208Z,37.58
2022-11-15T08:22:18.547Z,42.22
2022-11-15T08:24:44.859Z,39.35
2022-11-15T08:27:15.848Z,38.70
2022-11-15T08:29:42.502Z,37.08
2022-11-15T08:32:08.795Z,39.72
2022-11-15T08:34:35.166Z,39.53
2022-11-15T08:37:01.451Z,39.95
2022-11-15T08:39:27.738Z,41.67
2022-11-15T08:41:54.251Z,42.92
2022-11-15T08:44:20.536Z,44.20
2022-11-15T08:46:46.911Z,43.20
2022-11-15T08:49:13.252Z,46.35
2022-11-15T08:51:39.577Z,49.35
2022-11-15T08:54:05.881Z,48.22
2022-11-15T08:56:32.331Z,48.40
2022-11-15T08:58:58.627Z,43.70
2022-11-15T09:01:25.064Z,43.65
2022-11-15T09:03:52.018Z,46.85
2022-11-15T09:06:18.717Z,49.08
2022-11-15T09:08:47.877Z,43.63
2022-11-15T09:11:15.549Z,40.00
2022-11-15T09:13:42.236Z,39.67
2022-11-15T09:16:08.519Z,40.42
2022-11-15T09:18:35.161Z,38.85
2022-11-15T09:21:03.074Z,34.65
2022-11-15T09:23:29.368Z,36.45
2022-11-15T09:25:55.679Z,39.55
2022-11-15T09:28:22.017Z,37.03
2022-11-15T09:30:48.297Z,35.58
2022-11-15T09:33:14.571Z,35.70
2022-11-15T09:35:41.902Z,35.75
2022-11-15T09:38:08.268Z,32.80
2022-11-15T09:40:34.702Z,42.13
2022-11-15T09:43:00.991Z,40.38
2022-11-15T09:45:27.296Z,39.60
2022-11-15T09:47:53.557Z,36.83
2022-11-15T09:50:19.854Z,39.40
2022-11-15T09:52:46.130Z,33.85
2022-11-15T09:55:14.556Z,35.22
2022-11-15T09:57:41.076Z,43.05
2022-11-15T10:00:38.784Z,35.17
2022-11-15T10:02:53.743Z,36.70
2022-11-15T10:05:20.039Z,46.10
2022-11-15T10:07:46.363Z,41.75
2022-11-15T10:10:15.660Z,44.60
2022-11-15T10:12:41.928Z,40.78
2022-11-15T10:15:08.206Z,36.22
2022-11-15T10:17:34.542Z,44.35
2022-11-15T10:20:05.308Z,45.35
2022-11-15T10:22:32.395Z,57.65
2022-11-15T10:24:58.748Z,46.03
2022-11-15T10:27:25.039Z,58.30
2022-11-15T10:29:51.355Z,39.83
2022-11-15T10:32:17.868Z,34.67
2022-11-15T10:34:44.189Z,42.70
2022-11-15T10:37:10.506Z,32.28
2022-11-15T10:39:36.959Z,36.22
2022-11-15T10:42:09.592Z,36.42
2022-11-15T10:44:37.272Z,30.48
2022-11-15T10:47:03.555Z,33.40
2022-11-15T10:49:29.912Z,29.35
2022-11-15T10:51:56.228Z,33.35
2022-11-15T10:54:22.854Z,34.05
2022-11-15T10:56:49.150Z,36.47
2022-11-15T10:59:15.462Z,33.22
2022-11-15T11:01:42.843Z,41.58
2022-11-15T11:04:09.156Z,31.38
2022-11-15T11:06:35.514Z,30.73
2022-11-15T11:09:01.802Z,30.23
2022-11-15T11:11:28.090Z,34.05
2022-11-15T11:13:54.454Z,35.45
2022-11-15T11:16:20.865Z,31.35
2022-11-15T11:18:47.231Z,34.33
2022-11-15T11:21:13.539Z,36.13
2022-11-15T11:23:40.077Z,30.40
2022-11-15T11:26:06.437Z,34.13
2022-11-15T11:28:33.047Z,34.10
2022-11-15T11:30:59.546Z,34.45
2022-11-15T11:33:25.871Z,30.70
2022-11-15T11:35:52.805Z,39.15
2022-11-15T11:38:19.111Z,34.47
2022-11-15T11:40:46.238Z,33.22
2022-11-15T11:43:12.679Z,31.38
2022-11-15T11:45:41.247Z,32.03
2022-11-15T11:48:09.744Z,31.85
2022-11-15T11:50:36.042Z,37.40
2022-11-15T11:53:04.220Z,33.17
2022-11-15T11:55:30.800Z,35.40
2022-11-15T11:57:57.178Z,46.53
2022-11-15T12:00:23.539Z,32.47
2022-11-15T12:02:50.311Z,39.60
2022-11-15T12:05:16.699Z,34.70
2022-11-15T12:07:42.988Z,30.50
2022-11-15T12:10:09.337Z,36.38
2022-11-15T12:12:35.635Z,32.97
2022-11-15T12:15:01.949Z,35.42
2022-11-15T12:17:28.279Z,35.20
2022-11-15T12:19:54.614Z,33.95
2022-11-15T12:22:21.787Z,37.42
2022-11-15T12:24:48.082Z,37.70
2022-11-15T12:27:14.456Z,34.88
2022-11-15T12:29:40.848Z,39.33
2022-11-15T12:32:07.157Z,35.25
2022-11-15T12:34:33.438Z,40.05
2022-11-15T12:36:59.862Z,43.85
2022-11-15T12:39:26.129Z,38.03
2022-11-15T12:41:52.462Z,35.45
2022-11-15T12:44:18.738Z,31.00
2022-11-15T12:46:45.073Z,34.20
2022-11-15T12:49:11.417Z,38.50
2022-11-15T12:51:37.721Z,41.03
2022-11-15T12:54:04.063Z,39.88
2022-11-15T12:56:30.339Z,32.45
2022-11-15T12:58:57.260Z,33.85
2022-11-15T13:01:25.491Z,36.05
2022-11-15T13:03:51.831Z,35.15
2022-11-15T13:06:18.138Z,32.35
2022-11-15T13:08:44.958Z,32.97
2022-11-15T13:11:11.232Z,44.10
2022-11-15T13:13:37.502Z,37.45
2022-11-15T13:16:03.795Z,42.75
2022-11-15T13:18:30.574Z,38.10
2022-11-15T13:21:02.115Z,38.17
2022-11-15T13:23:29.105Z,36.70
2022-11-15T13:25:55.474Z,42.60
2022-11-15T13:28:21.764Z,43.63
2022-11-15T13:30:48.067Z,44.97
2022-11-15T13:33:14.412Z,40.45
2022-11-15T13:35:40.701Z,44.38
2022-11-15T13:38:07.030Z,43.85
2022-11-15T13:40:33.309Z,42.70
2022-11-15T13:42:59.695Z,38.63
2022-11-15T13:45:27.207Z,37.20
2022-11-15T13:47:53.536Z,38.15
2022-11-15T13:50:19.861Z,39.95
2022-11-15T13:52:46.576Z,35.70
2022-11-15T13:55:13.397Z,39.08
2022-11-15T13:57:39.690Z,37.42
2022-11-15T14:00:06.202Z,35.60
2022-11-15T14:02:33.086Z,39.70
2022-11-15T14:04:59.383Z,33.50
2022-11-15T14:07:25.829Z,33.25
2022-11-15T14:09:52.594Z,35.88
2022-11-15T14:12:22.188Z,37.88
2022-11-15T14:14:48.491Z,33.63
2022-11-15T14:17:14.788Z,29.80
2022-11-15T14:19:41.133Z,31.35
2022-11-15T14:22:10.006Z,35.30
2022-11-15T14:24:36.294Z,36.00
2022-11-15T14:27:02.617Z,30.10
2022-11-15T14:29:28.963Z,32.20
2022-11-15T14:31:55.288Z,33.47
2022-11-15T14:34:23.136Z,33.47
2022-11-15T14:36:49.460Z,32.00
2022-11-15T14:39:15.749Z,32.83
2022-11-15T14:41:42.054Z,34.47
2022-11-15T14:47:23.161Z,30.15
2022-11-15T14:49:49.444Z,35.97
2022-11-15T14:52:15.724Z,32.90
2022-11-15T14:54:42.018Z,32.65
2022-11-15T14:57:08.374Z,30.27
2022-11-15T14:59:34.642Z,30.73
2022-11-15T15:02:00.939Z,34.42
2022-11-15T15:04:27.402Z,32.80
2022-11-15T15:06:53.821Z,32.20
2022-11-15T15:09:20.147Z,30.00
2022-11-15T15:11:46.751Z,36.10
2022-11-15T15:14:13.050Z,31.85
2022-11-15T15:16:39.386Z,33.65
2022-11-15T15:19:05.648Z,33.28
2022-11-15T15:21:36.731Z,30.85
2022-11-15T15:24:03.904Z,31.48
2022-11-15T15:26:30.250Z,35.33
2022-11-15T15:28:56.838Z,33.47
2022-11-15T15:31:23.142Z,37.85
2022-11-15T15:33:49.531Z,38.42
2022-11-15T15:36:15.983Z,36.58
2022-11-15T15:38:42.362Z,47.97
2022-11-15T15:41:08.650Z,37.78
2022-11-15T15:43:34.977Z,38.80
2022-11-15T15:46:01.263Z,34.70
2022-11-15T15:51:31.777Z,32.65
2022-11-15T15:53:59.016Z,36.88
2022-11-15T15:56:25.403Z,37.88
2022-11-15T15:58:53.431Z,36.08
2022-11-15T16:01:19.752Z,33.70
2022-11-15T16:03:46.077Z,31.42
2022-11-15T16:06:12.348Z,33.55
2022-11-15T16:09:00.306Z,35.15
2022-11-15T16:11:24.940Z,37.42
2022-11-15T16:13:51.302Z,33.60
2022-11-15T16:16:17.538Z,36.17
2022-11-15T16:18:43.763Z,36.03
2022-11-15T16:21:10.157Z,34.13
2022-11-15T16:23:36.677Z,37.80
2022-11-15T16:26:04.288Z,33.92
2022-11-15T16:28:30.834Z,34.78
2022-11-15T16:30:57.248Z,33.30
2022-11-15T16:33:23.556Z,32.20
2022-11-15T16:35:49.917Z,34.92
2022-11-15T16:38:16.248Z,33.75
2022-11-15T16:40:42.482Z,35.58
2022-11-15T16:43:08.694Z,34.72
2022-11-15T16:45:34.904Z,36.20
2022-11-15T16:48:01.101Z,33.70
2022-11-15T16:50:27.373Z,40.25
2022-11-15T16:52:53.647Z,41.10
2022-11-15T16:55:19.898Z,45.35
2022-11-15T16:57:46.111Z,36.20
2022-11-15T17:00:12.320Z,37.50
2022-11-15T17:02:38.537Z,38.10
2022-11-15T17:05:09.574Z,39.42
2022-11-15T17:07:37.389Z,34.15
2022-11-15T17:10:03.647Z,36.42
2022-11-15T17:12:30.990Z,37.38
2022-11-15T17:14:57.309Z,37.50
2022-11-15T17:17:23.539Z,32.78
2022-11-15T17:19:49.765Z,35.47
2022-11-15T17:22:16.628Z,38.10
2022-11-15T17:24:43.022Z,37.13
2022-11-15T17:27:09.223Z,35.70
2022-11-15T17:29:35.439Z,36.25
2022-11-15T17:32:01.672Z,38.22
2022-11-15T17:34:27.916Z,37.15
2022-11-15T17:36:54.143Z,34.88
2022-11-15T17:39:20.853Z,36.40
2022-11-15T17:41:47.233Z,39.65
2022-11-15T17:44:13.521Z,34.10
2022-11-15T17:46:40.709Z,36.20
2022-11-15T17:49:06.914Z,37.80
2022-11-15T17:51:33.166Z,44.83
2022-11-15T17:53:59.440Z,35.45
2022-11-15T17:56:25.649Z,33.25
2022-11-15T17:58:51.899Z,36.55
2022-11-15T18:01:18.209Z,34.40
2022-11-15T18:03:44.473Z,36.95
2022-11-15T18:06:10.686Z,32.60
2022-11-15T18:08:37.942Z,32.70
2022-11-15T18:11:04.191Z,36.10
2022-11-15T18:16:20.864Z,34.10
2022-11-15T18:18:47.091Z,39.70
2022-11-15T18:21:13.374Z,35.38
2022-11-15T18:23:39.687Z,34.58
2022-11-15T18:26:05.977Z,33.10
2022-11-15T18:28:32.802Z,39.63
2022-11-15T18:30:59.348Z,35.95
2022-11-15T18:33:25.581Z,34.88
2022-11-15T18:35:51.802Z,32.58
2022-11-15T18:38:18.120Z,31.92
2022-11-15T18:40:44.539Z,36.42
2022-11-15T18:43:10.762Z,35.72
2022-11-15T18:45:37.257Z,33.65
2022-11-15T18:48:03.477Z,36.22
2022-11-15T18:50:29.684Z,36.63
2022-11-15T18:52:55.967Z,29.88
2022-11-15T18:55:22.192Z,37.55
2022-11-15T18:57:48.438Z,35.22
2022-11-15T19:00:14.648Z,36.15
2022-11-15T19:02:40.919Z,33.50
2022-11-15T19:05:07.139Z,38.95
2022-11-15T19:07:33.496Z,38.17
2022-11-15T19:10:02.183Z,37.10
2022-11-15T19:12:28.765Z,37.85
2022-11-15T19:14:54.985Z,34.55
2022-11-15T19:17:21.227Z,34.83
2022-11-15T19:19:47.469Z,37.50
2022-11-15T19:22:13.680Z,36.75
2022-11-15T19:24:43.010Z,35.03
2022-11-15T19:27:09.273Z,35.92
2022-11-15T19:29:35.545Z,33.35
2022-11-15T19:32:03.419Z,37.72
2022-11-15T19:34:29.718Z,31.77
2022-11-15T19:36:56.047Z,32.75
2022-11-15T19:39:22.275Z,33.75
2022-11-15T19:41:49.948Z,36.25
2022-11-15T19:44:16.279Z,32.88
2022-11-15T19:46:42.586Z,34.25
2022-11-15T19:49:10.762Z,33.53
2022-11-15T19:51:37.535Z,33.90
2022-11-15T19:54:06.773Z,31.15
2022-11-15T19:56:33.612Z,35.67
2022-11-15T19:59:00.189Z,32.33
2022-11-15T20:01:26.437Z,33.72
2022-11-15T20:03:54.516Z,34.28
2022-11-15T20:06:20.811Z,33.25
2022-11-15T20:08:47.967Z,32.97
2022-11-15T20:11:14.304Z,35.15
2022-11-15T20:13:40.611Z,30.75
2022-11-15T20:16:06.819Z,31.52
2022-11-15T20:18:33.239Z,29.95
2022-11-15T20:20:59.772Z,31.70
2022-11-15T20:23:26.230Z,28.95
2022-11-15T20:25:52.461Z,31.70
2022-11-15T20:28:18.677Z,30.83
2022-11-15T20:30:45.151Z,32.05
2022-11-15T20:33:11.465Z,31.30
2022-11-15T20:35:37.690Z,32.53
2022-11-15T20:38:03.954Z,31.40
2022-11-15T20:40:30.211Z,35.20
2022-11-15T20:42:56.573Z,31.02
2022-11-15T20:45:22.811Z,31.83
2022-11-15T20:47:49.099Z,33.80
2022-11-15T20:50:40.955Z,33.13
2022-11-15T20:53:01.564Z,32.17
2022-11-15T20:55:27.793Z,32.95
2022-11-15T20:57:54.089Z,32.92
2022-11-15T21:00:25.916Z,31.77
2022-11-15T21:02:52.246Z,30.45
2022-11-15T21:05:18.465Z,33.08
2022-11-15T21:07:44.716Z,32.88
2022-11-15T21:10:29.946Z,32.42
2022-11-15T21:12:56.163Z,29.42
2022-11-15T21:15:22.455Z,28.98
2022-11-15T21:17:48.696Z,33.42
2022-11-15T21:20:16.163Z,30.23
2022-11-15T21:22:42.477Z,30.55
2022-11-15T21:25:08.685Z,31.00
2022-11-15T21:27:34.901Z,30.25
2022-11-15T21:30:01.138Z,28.98
2022-11-15T21:32:29.073Z,29.45
2022-11-15T21:34:55.435Z,33.13
2022-11-15T21:37:21.691Z,27.75
2022-11-15T21:39:48.089Z,29.60
2022-11-15T21:42:14.298Z,29.83
2022-11-15T21:44:40.554Z,28.60
2022-11-15T21:47:06.797Z,28.63
2022-11-15T21:49:33.152Z,33.05
2022-11-15T21:51:59.379Z,31.27
2022-11-15T21:54:25.780Z,31.15
2022-11-15T21:56:51.997Z,28.75
2022-11-15T21:59:18.217Z,29.13
2022-11-15T22:02:03.250Z,31.92
2022-11-15T22:04:29.481Z,28.70
2022-11-15T22:06:55.763Z,32.10
2022-11-15T22:09:22.007Z,30.05
2022-11-15T22:11:48.293Z,31.58
2022-11-15T22:14:14.558Z,36.33
2022-11-15T22:16:42.872Z,31.65
2022-11-15T22:19:09.254Z,30.33
2022-11-15T22:21:35.846Z,30.42
2022-11-15T22:24:02.078Z,31.83
2022-11-15T22:26:28.312Z,35.65
2022-11-15T22:28:54.535Z,31.17
2022-11-15T22:31:20.803Z,29.23
2022-11-15T22:33:47.043Z,32.25
2022-11-15T22:36:13.261Z,32.50
2022-11-15T22:38:39.616Z,31.38
2022-11-15T22:41:05.852Z,32.85
2022-11-15T22:43:32.147Z,29.65
2022-11-15T22:45:58.434Z,29.73
2022-11-15T22:48:24.632Z,30.35
2022-11-15T22:50:51.015Z,31.27
2022-11-15T22:53:17.349Z,29.35
2022-11-15T22:55:43.551Z,32.08
2022-11-15T22:58:09.860Z,30.70
2022-11-15T23:00:36.128Z,33.10
2022-11-15T23:03:02.377Z,32.20
2022-11-15T23:05:28.753Z,29.17
2022-11-15T23:07:54.997Z,26.83
2022-11-15T23:10:40.313Z,32.58
2022-11-15T23:13:18.593Z,29.40
2022-11-15T23:16:03.656Z,29.25
2022-11-15T23:18:30.077Z,31.25
2022-11-15T23:20:56.574Z,30.17
2022-11-15T23:23:22.804Z,30.15
2022-11-15T23:25:49.017Z,28.38
2022-11-15T23:28:15.264Z,29.73
2022-11-15T23:31:00.410Z,28.65
2022-11-15T23:33:45.044Z,28.05
2022-11-15T23:36:11.309Z,29.75
2022-11-15T23:38:37.600Z,26.73
2022-11-15T23:41:03.825Z,29.13
2022-11-15T23:43:30.060Z,32.38
2022-11-15T23:45:56.292Z,29.27
2022-11-15T23:48:22.527Z,29.13
2022-11-15T23:50:48.789Z,27.10
2022-11-15T23:53:15.029Z,32.22
2022-11-15T23:55:41.257Z,28.17
2022-11-15T23:58:07.459Z,29.10
